Time;durP1;ratioP1;P1;durP2;ratioP2;P2;SDS_P1;SDS_P2;PMS_P1;PMS_P2;Temp;Humidity;BMP_temperature;BMP_pressure;BME280_temperature;BME280_humidity;BME280_pressure;Samples;Min_cycle;Max_cycle;Signal;HPM_P1;HPM_P2
2022/07/20 00:04:30;;;;;;;6.13;4.28;;;;;;;18.28;97.48;100464.59;10393721;28;20132;-70
2022/07/20 00:14:50;;;;;;;6.05;4.20;;;;;;;18.87;97.08;100536.03;10378788;28;20041;-69
2022/07/20 00:19:51;;;;;;;5.60;4.45;;;;;;;18.71;96.59;100496.19;10377858;28;20141;-69
2022/07/20 00:24:52;;;;;;;5.82;4.10;;;;;;;18.05;96.68;100389.03;10378746;28;20536;-70
2022/07/20 00:29:53;;;;;;;6.68;4.80;;;;;;;18.90;96.75;100524.03;10379013;28;20064;-70
2022/07/20 00:34:53;;;;;;;5.45;4.25;;;;;;;18.92;96.58;100528.16;10377382;28;20052;-70
2022/07/20 00:39:54;;;;;;;5.07;4.40;;;;;;;18.91;96.39;100541.84;10377560;28;20045;-70
2022/07/20 00:44:55;;;;;;;5.78;4.90;;;;;;;18.89;96.05;100514.31;10376847;28;20044;-70
2022/07/20 00:49:56;;;;;;;7.63;4.65;;;;;;;18.49;95.76;100444.59;10376263;28;20585;-70
2022/07/20 00:54:57;;;;;;;6.20;4.50;;;;;;;18.74;95.76;100498.47;10376413;28;20045;-70
2022/07/20 00:59:58;;;;;;;12.88;5.07;;;;;;;18.61;96.32;100477.03;10377405;28;20042;-70
2022/07/20 01:04:59;;;;;;;6.55;4.70;;;;;;;18.74;96.35;100489.56;10376840;28;20041;-70
2022/07/20 01:10:00;;;;;;;12.38;5.20;;;;;;;18.83;96.77;100504.41;10375682;28;20041;-70
2022/07/20 01:15:01;;;;;;;7.75;4.72;;;;;;;18.40;96.81;100429.78;10375712;28;20049;-70
2022/07/20 01:20:02;;;;;;;7.05;4.70;;;;;;;18.83;96.41;100488.28;10376692;28;20042;-70
2022/07/20 01:25:03;;;;;;;9.95;4.82;;;;;;;18.91;96.05;100509.53;10375349;28;20117;-70
2022/07/20 01:30:05;;;;;;;16.05;4.80;;;;;;;18.93;95.93;100515.50;10374941;28;20049;-71
2022/07/20 01:35:06;;;;;;;18.33;5.47;;;;;;;18.79;96.05;100481.69;10375807;28;20034;-71
2022/07/20 01:40:07;;;;;;;10.70;5.28;;;;;;;18.88;96.48;100513.50;10373989;28;20084;-70
2022/07/20 01:45:08;;;;;;;9.95;5.00;;;;;;;18.52;96.26;100463.00;10374488;28;20118;-70
2022/07/20 01:50:10;;;;;;;7.60;4.82;;;;;;;19.03;96.01;100531.19;10375021;28;20387;-70
2022/07/20 01:55:10;;;;;;;6.85;4.55;;;;;;;19.02;96.08;100526.84;10375129;28;20050;-70
2022/07/20 02:00:13;;;;;;;8.02;5.15;;;;;;;18.92;96.32;100509.31;10374404;28;20044;-70
2022/07/20 02:05:14;;;;;;;7.07;5.53;;;;;;;18.79;95.80;100470.91;10373372;28;20541;-70
2022/07/20 02:10:15;;;;;;;41.15;19.42;;;;;;;19.11;95.78;100506.66;10374219;28;20095;-71
2022/07/20 02:20:36;;;;;;;46.17;25.15;;;;;;;19.24;95.62;100511.97;10374052;28;20049;-71
2022/07/20 02:25:38;;;;;;;46.25;26.20;;;;;;;19.26;95.95;100523.31;10372271;28;20054;-71
2022/07/20 02:30:40;;;;;;;16.48;11.32;;;;;;;19.31;95.82;100518.09;10372846;28;20080;-71
2022/07/20 02:35:41;;;;;;;39.17;9.98;;;;;;;19.35;95.88;100524.72;10373410;28;20034;-70
2022/07/20 02:40:42;;;;;;;9.55;5.60;;;;;;;19.22;95.47;100508.66;10372518;28;20034;-71
2022/07/20 02:45:42;;;;;;;9.02;5.57;;;;;;;19.41;95.19;100532.94;10372943;28;20124;-70
2022/07/20 02:50:43;;;;;;;7.80;5.05;;;;;;;19.34;95.28;100557.25;10372311;28;20046;-70
2022/07/20 02:55:45;;;;;;;6.30;5.25;;;;;;;19.00;94.85;100500.16;10372310;28;20063;-71
2022/07/20 03:00:46;;;;;;;10.95;6.25;;;;;;;19.34;94.67;100558.06;10372200;28;20076;-71
2022/07/20 03:05:47;;;;;;;38.90;8.27;;;;;;;19.33;94.83;100545.66;10372259;28;20120;-71
2022/07/20 03:10:47;;;;;;;34.03;8.13;;;;;;;19.33;94.93;100544.81;10371978;28;20048;-71
2022/07/20 03:15:48;;;;;;;40.67;7.55;;;;;;;19.52;94.64;100562.66;10372253;28;20049;-71
2022/07/20 03:20:49;;;;;;;7.75;6.45;;;;;;;19.35;94.73;100546.25;10371563;28;20129;-70
2022/07/20 03:25:50;;;;;;;8.00;6.32;;;;;;;19.35;95.06;100551.66;10371676;28;20096;-71
2022/07/20 03:30:51;;;;;;;8.90;6.57;;;;;;;19.31;95.56;100553.09;10372083;28;20042;-71
2022/07/20 03:35:51;;;;;;;7.18;6.43;;;;;;;19.42;95.58;100559.66;10371293;28;20038;-71
2022/07/20 03:40:52;;;;;;;9.32;6.72;;;;;;;18.81;95.63;100460.75;10371837;28;20789;-70
2022/07/20 03:45:53;;;;;;;13.05;6.97;;;;;;;18.93;95.91;100464.38;10371068;28;20395;-71
2022/07/20 03:50:54;;;;;;;22.95;8.07;;;;;;;19.42;96.44;100543.50;10372082;28;20053;-71
2022/07/20 03:55:55;;;;;;;11.88;7.10;;;;;;;18.88;96.00;100451.59;10371621;28;20504;-71
2022/07/20 04:00:56;;;;;;;8.52;6.63;;;;;;;19.37;96.27;100527.97;10372164;28;20048;-71
2022/07/20 04:05:56;;;;;;;14.05;7.30;;;;;;;19.37;96.71;100517.22;10363206;28;20046;-70
2022/07/20 04:10:57;;;;;;;20.17;6.97;;;;;;;19.55;96.40;100529.88;10355707;28;20046;-70
2022/07/20 04:15:58;;;;;;;10.52;6.22;;;;;;;19.59;96.35;100539.19;10334610;28;20572;-70
2022/07/20 04:20:59;;;;;;;32.83;17.55;;;;;;;19.54;96.35;100522.03;10343304;28;20037;-71
2022/07/20 04:26:00;;;;;;;16.40;8.15;;;;;;;18.91;96.31;100420.72;10363143;28;20128;-70
2022/07/20 04:31:00;;;;;;;10.57;6.95;;;;;;;19.52;96.37;100511.47;10377204;28;20042;-70
2022/07/20 04:36:01;;;;;;;14.98;7.07;;;;;;;18.99;96.62;100441.94;10365176;28;20563;-71
2022/07/20 04:41:02;;;;;;;13.30;7.50;;;;;;;19.52;96.88;100524.94;10382629;28;20038;-71
2022/07/20 04:46:03;;;;;;;13.60;7.28;;;;;;;18.97;96.65;100441.34;10377232;28;20050;-69
2022/07/20 04:51:04;;;;;;;13.50;7.32;;;;;;;19.54;96.56;100528.25;10374825;28;20516;-71
2022/07/20 04:56:05;;;;;;;9.23;5.95;;;;;;;19.52;96.54;100519.56;10355748;28;20054;-70
2022/07/20 05:01:14;;;;;;;15.27;7.10;;;;;;;19.70;97.41;100542.22;10373569;28;20046;-70
2022/07/20 05:06:16;;;;;;;19.50;7.50;;;;;;;19.65;96.28;100518.63;10377312;28;20516;-70
2022/07/20 05:11:16;;;;;;;12.27;7.10;;;;;;;19.64;96.02;100533.13;10375859;28;20138;-70
2022/07/20 05:16:17;;;;;;;30.92;8.43;;;;;;;19.63;96.15;100530.66;10376574;28;20120;-70
2022/07/20 05:21:18;;;;;;;9.27;5.97;;;;;;;19.51;96.31;100520.63;10375617;28;20038;-70
2022/07/20 05:26:19;;;;;;;18.85;6.15;;;;;;;19.66;96.35;100539.16;10375833;28;20084;-70
2022/07/20 05:31:20;;;;;;;15.38;6.93;;;;;;;19.27;96.33;100473.81;10375097;28;20426;-70
2022/07/20 05:36:21;;;;;;;7.25;4.40;;;;;;;19.62;96.45;100535.19;10374463;28;20053;-71
2022/07/20 05:41:21;;;;;;;7.63;4.22;;;;;;;19.64;97.20;100548.47;10375740;28;20034;-70
2022/07/20 05:46:22;;;;;;;5.80;4.15;;;;;;;19.08;97.46;100462.16;10374747;28;20071;-70
2022/07/20 05:51:23;;;;;;;8.70;4.03;;;;;;;19.59;97.62;100538.34;10375075;28;20583;-70
2022/07/20 05:56:24;;;;;;;12.95;7.18;;;;;;;19.37;98.21;100513.69;10375317;28;20087;-70
2022/07/20 06:01:25;;;;;;;13.55;4.97;;;;;;;19.23;98.65;100493.31;10375597;28;20053;-71
2022/07/20 06:06:26;;;;;;;11.10;7.97;;;;;;;19.34;99.17;100503.38;10374409;28;20401;-71
2022/07/20 06:11:26;;;;;;;7.53;4.05;;;;;;;19.37;99.68;100527.16;10374365;28;20053;-70
2022/07/20 06:16:28;;;;;;;8.27;3.60;;;;;;;18.88;100.00;100440.00;10373435;28;20049;-70
2022/07/20 06:21:29;;;;;;;9.25;4.30;;;;;;;19.28;100.00;100517.72;10373722;28;20053;-70
2022/07/20 06:26:29;;;;;;;6.53;3.58;;;;;;;18.90;100.00;100456.72;10373120;28;20436;-73
2022/07/20 06:31:32;;;;;;;6.45;3.38;;;;;;;19.21;100.00;100493.53;10373478;28;20073;-71
2022/07/20 06:36:33;;;;;;;6.25;3.65;;;;;;;19.30;100.00;100505.69;10372810;28;20034;-71
2022/07/20 06:41:34;;;;;;;10.27;3.67;;;;;;;19.39;100.00;100500.84;10373619;28;20050;-73
2022/07/20 06:46:34;;;;;;;35.38;18.90;;;;;;;19.36;100.00;100494.03;10373040;28;20069;-73
2022/07/20 06:51:35;;;;;;;15.35;9.90;;;;;;;19.25;100.00;100481.28;10372860;28;20051;-71
2022/07/20 06:56:36;;;;;;;10.48;6.80;;;;;;;19.34;100.00;100500.66;10372197;28;20046;-71
2022/07/20 07:01:37;;;;;;;16.30;5.65;;;;;;;19.06;100.00;100412.28;10372085;28;20046;-72
2022/07/20 07:06:38;;;;;;;11.98;3.78;;;;;;;19.56;100.00;100474.13;10371898;28;20409;-74
2022/07/20 07:11:39;;;;;;;5.40;3.80;;;;;;;19.44;99.46;100440.88;10372392;28;20046;-71
2022/07/20 07:16:39;;;;;;;4.78;3.33;;;;;;;19.75;99.05;100469.59;10372536;28;20601;-71
2022/07/20 07:21:40;;;;;;;4.45;3.55;;;;;;;19.61;98.22;100399.66;10372222;28;20050;-70
2022/07/20 07:26:41;;;;;;;10.18;3.40;;;;;;;20.17;97.23;100472.41;10371969;28;20058;-70
2022/07/20 07:31:42;;;;;;;6.43;2.42;;;;;;;19.22;95.03;100319.31;10371288;28;20042;-70
2022/07/20 07:36:43;;;;;;;3.22;2.25;;;;;;;20.00;94.29;100440.66;10372029;28;20042;-70
2022/07/20 07:41:44;;;;;;;9.15;3.25;;;;;;;19.66;93.99;100368.56;10371290;28;20042;-71
2022/07/20 07:46:44;;;;;;;5.68;3.33;;;;;;;19.80;93.07;100370.84;10372666;28;20549;-70
2022/07/20 07:51:45;;;;;;;6.80;4.40;;;;;;;20.30;92.31;100456.03;10371657;28;20081;-70
2022/07/20 07:56:46;;;;;;;7.22;5.07;;;;;;;20.30;91.68;100420.94;10372617;28;20054;-70
2022/07/20 08:01:47;;;;;;;11.93;5.78;;;;;;;20.48;90.93;100409.25;10379839;28;20470;-70
2022/07/20 08:06:49;;;;;;;11.35;5.28;;;;;;;20.80;89.71;100417.91;10379304;28;20054;-71
2022/07/20 08:11:50;;;;;;;12.27;4.68;;;;;;;20.95;87.91;100407.47;10378686;28;20042;-71
2022/07/20 08:16:51;;;;;;;9.32;4.00;;;;;;;20.83;86.34;100360.75;10378102;28;20049;-71
2022/07/20 08:21:51;;;;;;;34.05;4.85;;;;;;;21.13;86.13;100397.59;10378017;28;20042;-71
2022/07/20 08:26:52;;;;;;;10.18;3.30;;;;;;;21.34;85.23;100423.19;10378763;28;20041;-71
2022/07/20 08:31:53;;;;;;;11.25;3.90;;;;;;;21.21;84.88;100383.75;10376610;28;20073;-70
2022/07/20 08:36:54;;;;;;;7.28;3.33;;;;;;;21.38;84.41;100397.34;10377883;28;20050;-71
2022/07/20 08:41:55;;;;;;;5.35;3.33;;;;;;;21.38;83.34;100349.53;10377884;28;20849;-71
2022/07/20 08:46:56;;;;;;;18.02;3.10;;;;;;;21.78;81.76;100388.44;10377276;28;20444;-72
2022/07/20 08:51:58;;;;;;;6.68;2.85;;;;;;;21.90;81.70;100389.22;10377854;28;20137;-71
2022/07/20 08:57:07;;;;;;;9.07;3.15;;;;;;;21.86;80.34;100386.16;10377208;28;20038;-70
2022/07/20 09:02:09;;;;;;;8.45;3.45;;;;;;;21.92;81.24;100383.56;10376355;28;20081;-70
2022/07/20 09:07:10;;;;;;;9.68;3.55;;;;;;;21.86;80.58;100369.94;10376256;28;20042;-69
2022/07/20 09:12:10;;;;;;;18.60;4.10;;;;;;;21.74;81.05;100352.94;10375054;28;20045;-70
2022/07/20 09:17:20;;;;;;;5.38;3.30;;;;;;;21.88;78.52;100343.47;10376192;28;20144;-70
2022/07/20 09:22:35;;;;;;;9.15;3.50;;;;;;;22.09;77.38;100347.38;10376370;28;20038;-69
2022/07/20 09:27:36;;;;;;;20.45;4.07;;;;;;;22.10;78.54;100330.06;10374735;28;20128;-72
2022/07/20 09:32:56;;;;;;;8.73;3.75;;;;;;;22.28;76.18;100329.03;10375735;28;20042;-70
2022/07/20 09:38:00;;;;;;;12.45;5.32;;;;;;;22.22;76.58;100332.72;10375785;28;20069;-69
2022/07/20 09:43:01;;;;;;;6.85;4.70;;;;;;;22.31;76.16;100323.13;10375616;28;20061;-69
2022/07/20 09:48:13;;;;;;;7.82;4.88;;;;;;;21.90;74.61;100243.19;10374757;28;20111;-72
2022/07/20 09:53:14;;;;;;;11.40;4.82;;;;;;;22.25;75.09;100296.25;10375679;28;20496;-70
2022/07/20 09:58:18;;;;;;;8.90;3.72;;;;;;;22.18;74.83;100318.06;10375355;28;20525;-70
2022/07/20 10:03:18;;;;;;;30.15;5.13;;;;;;;21.63;75.22;100243.00;10374075;28;20120;-69
2022/07/20 10:08:19;;;;;;;6.18;3.10;;;;;;;21.85;75.45;100291.75;10373839;28;20048;-69
2022/07/20 10:13:20;;;;;;;9.35;3.00;;;;;;;21.43;75.33;100222.63;10373767;28;20095;-72
2022/07/20 10:18:22;;;;;;;12.65;3.15;;;;;;;21.71;75.32;100247.97;10373758;28;20042;-69
2022/07/20 10:23:24;;;;;;;12.80;2.83;;;;;;;21.85;74.11;100262.03;10373478;28;20040;-70
2022/07/20 10:28:33;;;;;;;4.75;2.40;;;;;;;21.77;72.82;100271.34;10373107;28;20132;-70
2022/07/20 10:33:37;;;;;;;4.45;2.45;;;;;;;21.85;73.65;100286.34;10372911;28;20045;-70
2022/07/20 10:38:37;;;;;;;6.80;2.23;;;;;;;21.87;73.03;100290.47;10372983;28;20121;-70
2022/07/20 10:43:38;;;;;;;4.57;2.50;;;;;;;21.58;73.31;100241.00;10373470;28;20359;-70
2022/07/20 10:48:47;;;;;;;10.65;2.88;;;;;;;21.94;72.44;100294.88;10373825;28;20057;-70
2022/07/20 10:53:48;;;;;;;5.63;2.67;;;;;;;21.30;72.57;100195.03;10372796;28;20049;-69
2022/07/20 10:58:50;;;;;;;11.00;3.35;;;;;;;21.52;72.55;100197.91;10372200;28;20498;-70
2022/07/20 11:03:51;;;;;;;15.73;3.03;;;;;;;21.94;72.65;100257.03;10373107;28;20046;-71
2022/07/20 11:08:58;;;;;;;11.88;2.60;;;;;;;22.02;72.95;100262.84;10372777;28;20045;-70
2022/07/20 11:13:59;;;;;;;13.15;3.03;;;;;;;22.17;73.03;100280.44;10372546;28;20466;-71
2022/07/20 11:19:02;;;;;;;5.05;2.35;;;;;;;21.90;72.04;100245.88;10371839;28;20042;-70
2022/07/20 11:24:03;;;;;;;8.55;2.95;;;;;;;21.73;72.92;100229.63;10372734;28;20046;-71
2022/07/20 11:29:10;;;;;;;8.02;1.83;;;;;;;21.58;72.75;100210.44;10371563;28;20413;-71
2022/07/20 11:34:14;;;;;;;9.63;2.33;;;;;;;21.37;73.50;100193.88;10376531;28;20505;-72
2022/07/20 11:39:17;;;;;;;13.88;2.70;;;;;;;21.65;73.45;100246.25;10380526;28;20042;-72
2022/07/20 11:44:21;;;;;;;9.10;2.22;;;;;;;21.81;73.75;100261.69;10378905;28;20116;-72
2022/07/20 11:49:22;;;;;;;8.10;2.00;;;;;;;21.85;73.25;100257.41;10372062;28;20131;-72
2022/07/20 11:54:25;;;;;;;5.43;2.20;;;;;;;21.80;72.90;100268.13;10362667;28;20081;-74
2022/07/20 11:59:26;;;;;;;9.77;2.60;;;;;;;21.72;73.34;100254.19;10378579;28;20053;-72
2022/07/20 12:04:27;;;;;;;10.35;2.22;;;;;;;21.82;73.23;100252.50;10358551;28;20049;-72
2022/07/20 12:09:35;;;;;;;15.15;2.97;;;;;;;21.95;73.07;100255.94;10353291;28;20042;-72
2022/07/20 12:14:42;;;;;;;9.48;2.20;;;;;;;21.62;72.86;100193.50;10365339;28;20046;-70
2022/07/20 12:19:45;;;;;;;10.02;2.03;;;;;;;21.99;72.60;100240.91;10359050;28;20046;-72
2022/07/20 12:24:57;;;;;;;7.25;2.20;;;;;;;22.08;72.39;100225.88;10351696;28;20046;-70
2022/07/20 12:29:59;;;;;;;11.48;2.30;;;;;;;21.96;72.34;100209.75;10358328;28;20063;-72
2022/07/20 12:35:05;;;;;;;5.28;1.52;;;;;;;21.53;71.20;100115.75;10356958;28;20054;-70
2022/07/20 12:40:06;;;;;;;9.73;1.88;;;;;;;21.68;70.90;100129.50;10351825;28;20039;-71
2022/07/20 12:45:08;;;;;;;5.72;2.33;;;;;;;22.01;70.69;100190.88;10350698;28;20034;-71
2022/07/20 12:50:09;;;;;;;10.25;2.30;;;;;;;22.07;70.73;100205.28;10352086;28;20120;-71
2022/07/20 12:55:10;;;;;;;9.75;2.00;;;;;;;22.06;70.50;100203.66;10352299;28;20085;-71
2022/07/20 13:00:11;;;;;;;11.25;2.50;;;;;;;22.13;71.40;100214.31;10351642;28;20154;-72
2022/07/20 13:05:12;;;;;;;8.15;2.10;;;;;;;22.14;70.86;100210.53;10351623;28;20034;-71
2022/07/20 13:10:14;;;;;;;21.70;2.67;;;;;;;21.41;71.10;100089.63;10354859;28;20040;-71
2022/07/20 13:15:15;;;;;;;50.13;4.88;;;;;;;22.07;72.56;100189.88;10367923;28;20481;-72
2022/07/20 13:20:16;;;;;;;7.80;2.28;;;;;;;21.52;72.77;100119.53;10350663;28;20065;-71
2022/07/20 13:25:17;;;;;;;12.95;2.88;;;;;;;21.99;75.07;100192.22;10365024;28;20129;-70
2022/07/20 13:30:18;;;;;;;11.82;3.10;;;;;;;21.32;78.71;100130.78;10390336;28;20049;-71
2022/07/20 13:35:19;;;;;;;10.60;3.80;;;;;;;20.83;82.73;100074.56;10375397;28;20046;-72
2022/07/20 13:40:19;;;;;;;20.80;3.58;;;;;;;21.29;85.39;100172.63;10376583;28;20604;-72
2022/07/20 13:45:20;;;;;;;8.18;2.70;;;;;;;20.60;87.02;100142.13;10370534;28;20053;-70
2022/07/20 13:50:21;;;;;;;17.45;3.80;;;;;;;20.88;90.28;100181.81;10374568;28;20046;-70
2022/07/20 13:55:22;;;;;;;11.63;4.35;;;;;;;20.92;93.59;100199.19;10345113;28;20042;-70
2022/07/20 14:00:23;;;;;;;10.20;5.65;;;;;;;20.96;94.45;100184.16;10334608;28;20049;-70
2022/07/20 14:05:24;;;;;;;13.50;4.45;;;;;;;20.86;94.40;100165.88;10333905;28;20046;-70
2022/07/20 14:10:25;;;;;;;8.43;3.53;;;;;;;20.54;93.79;100099.91;10334510;28;20084;-70
2022/07/20 14:15:26;;;;;;;4.97;3.00;;;;;;;21.01;93.93;100175.34;10334083;28;20073;-71
2022/07/20 14:20:27;;;;;;;5.90;2.50;;;;;;;21.00;93.49;100157.47;10333221;28;20073;-72
2022/07/20 14:25:28;;;;;;;7.93;3.92;;;;;;;21.03;95.13;100163.25;10331593;28;20125;-71
2022/07/20 14:30:29;;;;;;;7.15;3.65;;;;;;;20.77;96.63;100143.03;10332232;28;20100;-72
2022/07/20 14:35:31;;;;;;;16.23;4.70;;;;;;;20.94;98.82;100167.38;10332901;28;20070;-70
2022/07/20 14:40:31;;;;;;;11.18;5.28;;;;;;;20.92;100.00;100178.41;10332179;28;20089;-70
2022/07/20 14:45:33;;;;;;;5.80;4.68;;;;;;;20.80;100.00;100163.31;10362845;28;20115;-70
2022/07/20 14:50:34;;;;;;;8.63;4.85;;;;;;;20.82;100.00;100167.44;10372480;28;20138;-70
2022/07/20 14:55:36;;;;;;;9.10;5.80;;;;;;;20.69;100.00;100140.69;10372388;28;20124;-71
2022/07/20 15:00:36;;;;;;;8.13;6.07;;;;;;;20.74;100.00;100149.72;10373041;28;20038;-70
2022/07/20 15:05:40;;;;;;;35.92;6.95;;;;;;;20.27;100.00;100090.44;10372963;28;20120;-71
2022/07/20 15:10:41;;;;;;;18.05;5.88;;;;;;;20.72;100.00;100159.09;10371976;28;20037;-70
2022/07/20 15:15:42;;;;;;;15.55;6.53;;;;;;;20.58;100.00;100136.13;10372448;28;20124;-70
2022/07/20 15:20:43;;;;;;;13.55;6.60;;;;;;;20.54;100.00;100143.91;10371942;28;20040;-70
2022/07/20 15:25:44;;;;;;;15.18;6.97;;;;;;;20.66;100.00;100160.88;10370986;28;20034;-71
2022/07/20 15:30:46;;;;;;;9.75;6.57;;;;;;;20.20;100.00;100088.94;10372351;28;20100;-70
2022/07/20 15:35:47;;;;;;;14.77;6.53;;;;;;;20.04;100.00;100083.22;10372021;28;20042;-70
2022/07/20 15:40:47;;;;;;;25.00;6.70;;;;;;;20.26;100.00;100096.09;10372028;28;20041;-70
2022/07/20 15:45:48;;;;;;;11.57;5.85;;;;;;;20.61;100.00;100162.66;10371928;28;20053;-70
2022/07/20 15:50:49;;;;;;;10.43;5.63;;;;;;;20.59;100.00;100159.38;10372312;28;20085;-70
2022/07/20 15:55:50;;;;;;;19.42;5.88;;;;;;;20.60;100.00;100163.72;10371766;28;20046;-70
2022/07/20 16:00:51;;;;;;;112.15;95.15;;;;;;;20.44;100.00;100132.88;10370873;28;20041;-70
2022/07/20 16:05:52;;;;;;;36.42;32.53;;;;;;;20.15;100.00;100088.84;10371050;28;20046;-69
2022/07/20 16:10:54;;;;;;;23.15;13.30;;;;;;;20.55;100.00;100150.97;10370824;28;20046;-69
2022/07/20 16:15:55;;;;;;;18.20;10.65;;;;;;;20.54;100.00;100148.47;10371322;28;20497;-69
2022/07/20 16:20:56;;;;;;;14.48;7.53;;;;;;;20.51;100.00;100155.97;10376411;28;20042;-69
2022/07/20 16:25:57;;;;;;;11.20;6.55;;;;;;;20.12;100.00;100092.81;10377839;28;20408;-69
2022/07/20 16:30:57;;;;;;;20.95;6.70;;;;;;;20.30;100.00;100132.31;10378291;28;20379;-70
2022/07/20 16:35:58;;;;;;;15.23;9.40;;;;;;;20.39;100.00;100163.25;10373446;28;20560;-69
2022/07/20 16:40:59;;;;;;;25.33;10.85;;;;;;;20.49;100.00;100159.94;10377357;28;20409;-69
2022/07/20 16:46:00;;;;;;;14.20;11.00;;;;;;;20.17;100.00;100101.03;10377231;28;20141;-69
2022/07/20 16:51:01;;;;;;;14.70;10.20;;;;;;;20.29;100.00;100122.59;10377074;28;20042;-69
2022/07/20 16:56:05;;;;;;;18.40;11.45;;;;;;;20.34;100.00;100149.69;10377822;28;20180;-69
2022/07/20 17:01:06;;;;;;;19.13;12.20;;;;;;;20.30;100.00;100153.88;10376664;28;20072;-70
2022/07/20 17:06:07;;;;;;;17.08;12.52;;;;;;;20.33;100.00;100158.81;10376443;28;20382;-70
2022/07/20 17:11:08;;;;;;;13.63;10.63;;;;;;;20.18;100.00;100128.81;10371683;28;20116;-71
2022/07/20 17:16:09;;;;;;;11.90;9.50;;;;;;;20.09;100.00;100131.03;10372785;28;20103;-71
2022/07/20 17:21:09;;;;;;;13.18;8.43;;;;;;;19.55;100.00;100063.75;10369268;28;20038;-71
2022/07/20 17:26:10;;;;;;;9.98;7.30;;;;;;;19.80;100.00;100122.00;10349366;28;20410;-71
2022/07/20 17:31:11;;;;;;;12.48;8.30;;;;;;;19.92;100.00;100141.69;10374780;28;20042;-72
2022/07/20 17:36:12;;;;;;;9.73;7.28;;;;;;;19.97;100.00;100127.53;10359839;28;20402;-73
2022/07/20 17:41:13;;;;;;;14.35;8.52;;;;;;;20.14;100.00;100165.41;10335139;28;20088;-71
2022/07/20 17:46:13;;;;;;;11.00;8.55;;;;;;;19.98;100.00;100135.41;10338757;28;20058;-72
2022/07/20 17:51:14;;;;;;;11.15;9.10;;;;;;;19.99;100.00;100137.03;10372622;28;20561;-71
2022/07/20 17:56:15;;;;;;;18.88;8.80;;;;;;;20.14;100.00;100147.34;10372913;28;20576;-72
2022/07/20 18:01:16;;;;;;;15.00;10.18;;;;;;;20.13;100.00;100143.00;10370326;28;20513;-71
2022/07/20 18:06:17;;;;;;;10.43;9.32;;;;;;;20.14;100.00;100146.53;10367001;28;20041;-71
2022/07/20 18:11:17;;;;;;;16.17;9.65;;;;;;;20.11;100.00;100137.03;10371861;28;20104;-71
2022/07/20 18:16:18;;;;;;;14.05;9.13;;;;;;;20.15;100.00;100140.06;10348165;28;20046;-71
2022/07/20 18:21:20;;;;;;;14.50;8.82;;;;;;;19.98;100.00;100105.75;10332473;28;20045;-71
2022/07/20 18:26:21;;;;;;;13.68;9.88;;;;;;;20.11;100.00;100134.34;10332014;28;20396;-71
2022/07/20 18:31:22;;;;;;;17.33;10.88;;;;;;;19.76;100.00;100066.94;10331341;28;20042;-72
2022/07/20 18:36:23;;;;;;;15.73;11.27;;;;;;;20.16;100.00;100128.22;10332190;28;20133;-72
2022/07/20 18:41:24;;;;;;;15.85;9.38;;;;;;;20.15;100.00;100130.09;10330680;28;20052;-71
2022/07/20 18:46:25;;;;;;;11.88;8.75;;;;;;;20.14;100.00;100122.25;10349449;28;20133;-73
2022/07/20 18:51:25;;;;;;;11.18;8.85;;;;;;;19.62;100.00;100028.59;10339379;28;20042;-71
2022/07/20 18:56:26;;;;;;;11.10;8.60;;;;;;;19.92;100.00;100077.00;10331065;28;20046;-71
2022/07/20 19:01:27;;;;;;;13.93;8.93;;;;;;;20.04;100.00;100096.72;10332018;28;20188;-72
2022/07/20 19:06:28;;;;;;;12.55;9.40;;;;;;;20.07;100.00;100098.09;10331004;28;20046;-73
2022/07/20 19:11:29;;;;;;;15.02;9.85;;;;;;;20.13;100.00;100085.53;10330830;28;20046;-70
2022/07/20 19:16:30;;;;;;;11.55;9.32;;;;;;;20.06;100.00;100075.69;10343394;28;20033;-70
2022/07/20 19:21:31;;;;;;;13.23;9.13;;;;;;;20.01;100.00;100067.53;10365891;28;20038;-71
2022/07/20 19:26:32;;;;;;;13.75;9.32;;;;;;;20.01;100.00;100058.59;10367309;28;20572;-70
2022/07/20 19:31:34;;;;;;;14.68;8.93;;;;;;;20.02;100.00;100074.53;10372171;28;20074;-70
2022/07/20 19:36:35;;;;;;;15.43;8.88;;;;;;;19.83;100.00;100046.06;10360563;28;20042;-71
2022/07/20 19:41:36;;;;;;;13.30;9.48;;;;;;;19.87;100.00;100041.88;10370986;28;20441;-70
2022/07/20 19:46:38;;;;;;;14.07;9.52;;;;;;;20.01;100.00;100064.84;10370954;28;20046;-70
2022/07/20 19:51:39;;;;;;;18.17;10.23;;;;;;;19.97;100.00;100044.78;10363322;28;20053;-70
2022/07/20 19:56:40;;;;;;;15.27;10.20;;;;;;;19.52;100.00;99966.41;10352561;28;20052;-70
2022/07/20 20:01:40;;;;;;;16.23;12.20;;;;;;;20.05;100.00;100052.50;10352293;28;20038;-70
2022/07/20 20:06:41;;;;;;;17.48;10.82;;;;;;;19.98;100.00;100049.13;10339415;28;20089;-70
2022/07/20 20:11:42;;;;;;;15.90;11.60;;;;;;;19.97;100.00;100050.16;10337209;28;20049;-71
2022/07/20 20:16:43;;;;;;;25.70;12.82;;;;;;;20.00;100.00;100054.28;10338330;28;20101;-70
2022/07/20 20:21:44;;;;;;;14.52;12.65;;;;;;;20.01;100.00;100059.44;10337596;28;20046;-70
2022/07/20 20:26:45;;;;;;;15.68;11.02;;;;;;;20.02;100.00;100060.25;10337418;28;20080;-70
2022/07/20 20:31:45;;;;;;;12.50;10.68;;;;;;;19.90;100.00;100040.59;10338481;28;20445;-69
2022/07/20 20:36:47;;;;;;;16.15;10.82;;;;;;;19.97;100.00;100052.84;10337576;28;20048;-70
2022/07/20 20:41:47;;;;;;;13.95;10.90;;;;;;;19.92;100.00;100025.78;10337358;28;20581;-70
2022/07/20 20:46:48;;;;;;;13.93;10.00;;;;;;;19.74;100.00;99993.59;10337205;28;20152;-69
2022/07/20 20:51:49;;;;;;;15.65;9.65;;;;;;;20.00;100.00;100020.03;10337256;28;20521;-70
2022/07/20 20:56:50;;;;;;;12.05;10.38;;;;;;;20.06;100.00;100027.16;10336237;28;20600;-70
2022/07/20 21:01:51;;;;;;;13.02;8.77;;;;;;;20.06;100.00;100013.69;10336229;28;20418;-69
2022/07/20 21:06:52;;;;;;;12.88;8.30;;;;;;;20.00;100.00;100000.34;10335282;28;20030;-70
2022/07/20 21:11:53;;;;;;;10.27;7.97;;;;;;;19.95;100.00;100003.78;10336307;28;20042;-69
2022/07/20 21:16:54;;;;;;;12.52;8.20;;;;;;;19.82;100.00;99988.66;10336022;28;20528;-70
2022/07/20 21:21:55;;;;;;;12.27;8.77;;;;;;;20.01;100.00;99999.28;10336140;28;20046;-69
2022/07/20 21:26:56;;;;;;;13.00;8.57;;;;;;;19.49;100.00;99924.59;10335166;28;20042;-70
2022/07/20 21:31:57;;;;;;;10.20;8.40;;;;;;;19.87;100.00;99982.56;10335283;28;20046;-71
2022/07/20 21:36:58;;;;;;;12.27;10.65;;;;;;;19.07;100.00;99843.97;10336064;28;20101;-69
2022/07/20 21:41:59;;;;;;;15.05;10.00;;;;;;;19.95;100.00;99981.34;10335251;28;20125;-69
2022/07/20 21:47:00;;;;;;;17.52;11.48;;;;;;;19.95;100.00;99973.28;10347309;28;20585;-69
2022/07/20 21:52:01;;;;;;;23.05;13.65;;;;;;;19.89;100.00;99958.06;10374715;28;20041;-70
2022/07/20 21:57:04;;;;;;;20.08;13.35;;;;;;;19.82;100.00;99936.63;10373982;28;20044;-70
2022/07/20 22:02:05;;;;;;;16.57;13.97;;;;;;;19.56;100.00;99884.06;10374318;28;20050;-69
2022/07/20 22:07:06;;;;;;;16.35;12.90;;;;;;;19.44;100.00;99876.00;10374673;28;20064;-70
2022/07/20 22:12:07;;;;;;;15.10;13.20;;;;;;;19.95;100.00;99960.63;10373993;28;20045;-69
2022/07/20 22:17:08;;;;;;;18.35;13.70;;;;;;;19.97;100.00;99958.50;10374087;28;20095;-69
2022/07/20 22:22:09;;;;;;;18.35;12.65;;;;;;;19.90;100.00;99930.88;10373526;28;20080;-69
2022/07/20 22:27:10;;;;;;;14.80;11.07;;;;;;;19.84;100.00;99923.75;10373531;28;20045;-69
2022/07/20 22:32:11;;;;;;;19.52;12.25;;;;;;;19.10;100.00;99803.13;10374285;28;20049;-69
2022/07/20 22:37:12;;;;;;;16.20;13.77;;;;;;;19.90;100.00;99925.47;10374755;28;20030;-69
2022/07/20 22:42:13;;;;;;;21.38;15.15;;;;;;;19.81;100.00;99902.66;10374148;28;20045;-69
2022/07/20 22:47:14;;;;;;;19.55;14.20;;;;;;;19.95;100.00;99920.19;10373445;28;20393;-69
2022/07/20 22:52:15;;;;;;;20.05;14.48;;;;;;;20.03;100.00;99933.28;10373206;28;20049;-70
2022/07/20 23:02:37;;;;;;;15.73;12.88;;;;;;;19.99;100.00;99915.94;10373074;28;20048;-70